Laclede, Missouri
Current Conditions -  °F | °C
As of 3:55 AM on Tuesday 27 Jan 2015 (Local Time) from KIRK Reporting Station
Clear Clear  
Wind Chill: -3°   Ceiling: Unl
Heat Index:   Visibility: 10mi
Dew Point: -1°   Wind: 7mph
Humidity: 89%   Direction: 320°NW
Pressure: 30.03"   Gusts: NA
Location:  39.79°N, 93.17°W
Report Text: KIRK 270955Z AUTO 32006KT 10SM CLR 01/M01 A3003 RMK AO2 SLP179 T00061011
Loading
Personal Weather Stations






























Interactive Weather Map New forecast layout! Learn more

10-Day Weather Forecast

Advertisements
Track Severe Weather on mobile